General Villegas, Argentina
Current Conditions -  °F | °C
As of 5:00 PM on Monday 24 Nov 2014 (Local Time) from SAOC Reporting Station
Clear Clear  
Wind Chill: 72°   Ceiling: Unl
Heat Index: 72°   Visibility: 6mi
Dew Point: 46°   Wind: 15mph
Humidity: 41%   Direction: 160°SSE
Pressure: 29.88"   Gusts: NA
Location:  35.03°S, 63.02°W
Report Text: SAOC 242000Z 16013KT 9999 NSC 22/08 Q1012
Loading
Personal Weather Stations






























Interactive Weather Map New forecast layout! Learn more

10-Day Weather Forecast

Advertisements
Track Severe Weather on mobile